sensor_id;sensor_type;location;lat;lon;timestamp;pressure;altitude;pressure_sealevel;temperature;humidity
13027;BME280;6580;42.680;23.324;2023-02-18T00:01:43;96029.59;;;5.32;66.99
13027;BME280;6580;42.680;23.324;2023-02-18T00:04:10;96030.13;;;5.37;66.39
13027;BME280;6580;42.680;23.324;2023-02-18T00:06:38;96034.66;;;5.35;66.85
13027;BME280;6580;42.680;23.324;2023-02-18T00:09:09;96028.31;;;5.50;66.54
13027;BME280;6580;42.680;23.324;2023-02-18T00:11:41;96016.25;;;5.59;64.51
13027;BME280;6580;42.680;23.324;2023-02-18T00:14:11;96021.09;;;5.65;63.18
13027;BME280;6580;42.680;23.324;2023-02-18T00:16:40;96014.38;;;5.48;63.96
13027;BME280;6580;42.680;23.324;2023-02-18T00:19:10;96015.19;;;5.61;63.28
13027;BME280;6580;42.680;23.324;2023-02-18T00:21:38;96011.81;;;5.59;62.82
13027;BME280;6580;42.680;23.324;2023-02-18T00:24:09;96015.50;;;5.57;62.98
13027;BME280;6580;42.680;23.324;2023-02-18T00:26:41;95999.59;;;5.46;63.45
13027;BME280;6580;42.680;23.324;2023-02-18T00:29:08;95998.03;;;5.31;65.32
13027;BME280;6580;42.680;23.324;2023-02-18T00:31:49;95990.50;;;5.50;63.89
13027;BME280;6580;42.680;23.324;2023-02-18T00:34:20;95986.84;;;5.27;64.71
13027;BME280;6580;42.680;23.324;2023-02-18T00:36:48;95989.16;;;5.19;65.33
13027;BME280;6580;42.680;23.324;2023-02-18T00:39:21;95978.47;;;5.33;66.45
13027;BME280;6580;42.680;23.324;2023-02-18T00:41:51;95978.28;;;5.11;66.74
13027;BME280;6580;42.680;23.324;2023-02-18T00:44:20;95979.88;;;5.26;67.98
13027;BME280;6580;42.680;23.324;2023-02-18T00:46:48;95948.94;;;5.16;66.38
13027;BME280;6580;42.680;23.324;2023-02-18T00:49:15;95982.94;;;5.20;66.62
13027;BME280;6580;42.680;23.324;2023-02-18T00:51:43;95988.88;;;4.99;68.48
13027;BME280;6580;42.680;23.324;2023-02-18T00:54:15;95986.13;;;5.13;68.63
13027;BME280;6580;42.680;23.324;2023-02-18T00:56:44;95982.22;;;5.06;68.79
13027;BME280;6580;42.680;23.324;2023-02-18T00:59:15;95959.66;;;4.90;70.15
13027;BME280;6580;42.680;23.324;2023-02-18T01:01:43;95988.66;;;4.90;69.82
13027;BME280;6580;42.680;23.324;2023-02-18T01:04:10;95973.47;;;5.05;69.05
13027;BME280;6580;42.680;23.324;2023-02-18T01:06:39;95973.88;;;4.99;69.79
13027;BME280;6580;42.680;23.324;2023-02-18T01:09:09;95974.19;;;4.83;70.47
13027;BME280;6580;42.680;23.324;2023-02-18T01:11:37;95966.28;;;5.07;69.11
13027;BME280;6580;42.680;23.324;2023-02-18T01:14:05;95982.22;;;5.06;69.22
13027;BME280;6580;42.680;23.324;2023-02-18T01:19:05;95982.53;;;4.52;69.85
13027;BME280;6580;42.680;23.324;2023-02-18T01:21:32;95990.56;;;4.75;69.44
13027;BME280;6580;42.680;23.324;2023-02-18T01:23:59;95977.78;;;4.94;69.00
13027;BME280;6580;42.680;23.324;2023-02-18T01:26:36;95970.50;;;4.85;68.51
13027;BME280;6580;42.680;23.324;2023-02-18T01:29:03;95972.94;;;4.63;70.28
13027;BME280;6580;42.680;23.324;2023-02-18T01:31:29;95970.50;;;4.60;72.41
13027;BME280;6580;42.680;23.324;2023-02-18T01:33:58;95956.59;;;4.71;71.82
13027;BME280;6580;42.680;23.324;2023-02-18T01:36:25;95971.56;;;4.83;71.22
13027;BME280;6580;42.680;23.324;2023-02-18T01:38:52;95965.44;;;4.82;70.89
13027;BME280;6580;42.680;23.324;2023-02-18T01:41:19;95963.66;;;4.83;71.16
13027;BME280;6580;42.680;23.324;2023-02-18T01:43:47;95975.13;;;4.69;72.42
13027;BME280;6580;42.680;23.324;2023-02-18T01:46:17;95970.06;;;4.79;72.30
13027;BME280;6580;42.680;23.324;2023-02-18T01:48:47;95973.88;;;4.75;73.36
13027;BME280;6580;42.680;23.324;2023-02-18T01:51:19;95986.66;;;4.81;72.54
13027;BME280;6580;42.680;23.324;2023-02-18T01:53:53;95989.69;;;4.75;73.04
13027;BME280;6580;42.680;23.324;2023-02-18T01:56:25;95991.38;;;4.76;73.68
13027;BME280;6580;42.680;23.324;2023-02-18T01:58:56;95988.13;;;4.72;73.25
13027;BME280;6580;42.680;23.324;2023-02-18T02:01:30;95990.34;;;4.78;73.20
13027;BME280;6580;42.680;23.324;2023-02-18T02:04:01;95972.81;;;4.65;72.82
13027;BME280;6580;42.680;23.324;2023-02-18T02:06:30;95983.16;;;4.68;72.81
13027;BME280;6580;42.680;23.324;2023-02-18T02:08:59;95977.69;;;4.58;73.84
13027;BME280;6580;42.680;23.324;2023-02-18T02:14:36;95968.13;;;4.31;74.32
13027;BME280;6580;42.680;23.324;2023-02-18T02:17:10;95977.84;;;4.43;74.95
13027;BME280;6580;42.680;23.324;2023-02-18T02:31:45;95977.09;;;4.41;75.69
13027;BME280;6580;42.680;23.324;2023-02-18T02:34:48;95976.38;;;4.39;76.27
13027;BME280;6580;42.680;23.324;2023-02-18T02:37:22;95959.41;;;4.55;74.41
13027;BME280;6580;42.680;23.324;2023-02-18T02:39:59;95950.56;;;4.69;73.76
13027;BME280;6580;42.680;23.324;2023-02-18T02:42:39;95959.72;;;4.76;73.66
13027;BME280;6580;42.680;23.324;2023-02-18T02:45:17;95949.09;;;4.65;73.66
13027;BME280;6580;42.680;23.324;2023-02-18T02:47:53;95952.13;;;4.34;75.73
13027;BME280;6580;42.680;23.324;2023-02-18T02:50:46;95937.09;;;4.22;76.30
13027;BME280;6580;42.680;23.324;2023-02-18T02:53:20;95934.41;;;4.36;75.62
13027;BME280;6580;42.680;23.324;2023-02-18T02:55:52;95950.00;;;4.39;76.30
13027;BME280;6580;42.680;23.324;2023-02-18T02:58:21;95950.69;;;4.55;75.65
13027;BME280;6580;42.680;23.324;2023-02-18T03:01:08;95974.91;;;4.47;75.63
13027;BME280;6580;42.680;23.324;2023-02-18T03:04:09;95974.66;;;4.38;75.80
13027;BME280;6580;42.680;23.324;2023-02-18T03:06:49;95981.75;;;4.37;76.36
13027;BME280;6580;42.680;23.324;2023-02-18T03:09:33;95978.06;;;4.52;75.71
13027;BME280;6580;42.680;23.324;2023-02-18T03:12:15;95956.66;;;4.32;77.04
13027;BME280;6580;42.680;23.324;2023-02-18T03:14:56;95964.88;;;4.40;76.80
13027;BME280;6580;42.680;23.324;2023-02-18T03:17:30;95968.53;;;4.25;75.69
13027;BME280;6580;42.680;23.324;2023-02-18T03:20:05;95971.81;;;4.16;77.01
13027;BME280;6580;42.680;23.324;2023-02-18T03:22:40;95972.88;;;4.26;76.68
13027;BME280;6580;42.680;23.324;2023-02-18T03:25:11;95992.06;;;4.28;75.95
13027;BME280;6580;42.680;23.324;2023-02-18T03:27:42;96000.91;;;4.27;75.78
13027;BME280;6580;42.680;23.324;2023-02-18T03:30:14;95995.09;;;4.22;77.41
13027;BME280;6580;42.680;23.324;2023-02-18T03:32:41;96012.53;;;4.37;76.90
13027;BME280;6580;42.680;23.324;2023-02-18T03:35:15;95996.72;;;4.24;76.83
13027;BME280;6580;42.680;23.324;2023-02-18T03:37:50;96022.88;;;4.27;77.63
13027;BME280;6580;42.680;23.324;2023-02-18T03:40:19;96022.47;;;4.07;79.04
13027;BME280;6580;42.680;23.324;2023-02-18T03:42:49;96010.19;;;3.94;77.74
13027;BME280;6580;42.680;23.324;2023-02-18T03:45:17;96021.25;;;4.25;75.77
13027;BME280;6580;42.680;23.324;2023-02-18T03:47:46;96013.44;;;4.11;74.86
13027;BME280;6580;42.680;23.324;2023-02-18T03:50:15;96019.78;;;4.21;73.92
13027;BME280;6580;42.680;23.324;2023-02-18T03:52:45;96033.94;;;4.32;72.91
13027;BME280;6580;42.680;23.324;2023-02-18T03:55:12;96018.69;;;4.11;73.69
13027;BME280;6580;42.680;23.324;2023-02-18T03:57:41;96026.69;;;4.09;74.50
13027;BME280;6580;42.680;23.324;2023-02-18T04:00:09;96023.53;;;4.04;74.46
13027;BME280;6580;42.680;23.324;2023-02-18T04:02:37;96024.41;;;4.17;74.25
13027;BME280;6580;42.680;23.324;2023-02-18T04:05:05;96027.16;;;4.16;74.63
13027;BME280;6580;42.680;23.324;2023-02-18T04:07:33;96012.28;;;3.89;74.92
13027;BME280;6580;42.680;23.324;2023-02-18T04:10:01;96007.03;;;3.89;75.19
13027;BME280;6580;42.680;23.324;2023-02-18T04:12:29;95970.41;;;3.72;76.55
13027;BME280;6580;42.680;23.324;2023-02-18T04:14:56;96010.44;;;4.03;75.79
13027;BME280;6580;42.680;23.324;2023-02-18T04:17:23;96016.00;;;4.25;74.86
13027;BME280;6580;42.680;23.324;2023-02-18T04:19:56;96004.91;;;4.20;75.01
13027;BME280;6580;42.680;23.324;2023-02-18T04:22:23;96005.84;;;4.19;74.86
13027;BME280;6580;42.680;23.324;2023-02-18T04:24:50;95997.94;;;4.19;75.36
13027;BME280;6580;42.680;23.324;2023-02-18T04:27:19;95986.53;;;4.06;75.89
13027;BME280;6580;42.680;23.324;2023-02-18T04:29:47;95989.53;;;4.26;75.75
13027;BME280;6580;42.680;23.324;2023-02-18T04:32:15;95983.09;;;4.18;75.57
13027;BME280;6580;42.680;23.324;2023-02-18T04:34:44;95982.59;;;4.25;75.58
13027;BME280;6580;42.680;23.324;2023-02-18T04:37:11;95986.91;;;4.26;75.64
13027;BME280;6580;42.680;23.324;2023-02-18T04:39:39;95976.31;;;4.14;74.62
13027;BME280;6580;42.680;23.324;2023-02-18T04:42:07;95982.44;;;4.14;75.79
13027;BME280;6580;42.680;23.324;2023-02-18T04:44:37;95991.94;;;4.17;74.59
13027;BME280;6580;42.680;23.324;2023-02-18T04:47:05;95993.69;;;4.04;76.85
13027;BME280;6580;42.680;23.324;2023-02-18T04:49:33;95994.06;;;4.24;75.74
13027;BME280;6580;42.680;23.324;2023-02-18T04:52:00;96000.81;;;4.28;76.45
13027;BME280;6580;42.680;23.324;2023-02-18T04:54:28;95999.31;;;4.12;77.60
13027;BME280;6580;42.680;23.324;2023-02-18T04:56:56;96006.47;;;4.10;76.85
13027;BME280;6580;42.680;23.324;2023-02-18T04:59:23;96019.94;;;4.05;77.40
13027;BME280;6580;42.680;23.324;2023-02-18T05:01:59;96017.44;;;3.90;77.87
13027;BME280;6580;42.680;23.324;2023-02-18T05:04:25;96013.81;;;4.05;76.87
13027;BME280;6580;42.680;23.324;2023-02-18T05:06:54;96028.63;;;4.20;75.56
13027;BME280;6580;42.680;23.324;2023-02-18T05:09:21;96026.25;;;4.03;76.50
13027;BME280;6580;42.680;23.324;2023-02-18T05:11:49;96020.84;;;3.92;77.73
13027;BME280;6580;42.680;23.324;2023-02-18T05:14:18;96001.31;;;3.82;78.51
13027;BME280;6580;42.680;23.324;2023-02-18T05:16:46;96012.38;;;3.87;78.15
13027;BME280;6580;42.680;23.324;2023-02-18T05:19:19;96011.84;;;3.82;78.41
13027;BME280;6580;42.680;23.324;2023-02-18T05:21:47;96006.72;;;3.93;76.72
13027;BME280;6580;42.680;23.324;2023-02-18T05:24:14;95998.16;;;3.63;78.50
13027;BME280;6580;42.680;23.324;2023-02-18T05:26:48;95999.09;;;3.62;78.11
13027;BME280;6580;42.680;23.324;2023-02-18T05:29:15;95992.50;;;3.69;78.66
13027;BME280;6580;42.680;23.324;2023-02-18T05:31:43;96008.41;;;3.94;76.98
13027;BME280;6580;42.680;23.324;2023-02-18T05:34:10;96001.31;;;4.08;76.39
13027;BME280;6580;42.680;23.324;2023-02-18T05:36:40;96002.50;;;4.17;76.37
13027;BME280;6580;42.680;23.324;2023-02-18T05:39:07;95993.00;;;4.27;75.67
13027;BME280;6580;42.680;23.324;2023-02-18T05:41:36;95987.31;;;4.20;75.57
13027;BME280;6580;42.680;23.324;2023-02-18T05:44:03;96000.44;;;4.47;74.93
13027;BME280;6580;42.680;23.324;2023-02-18T05:46:47;95996.00;;;4.47;75.25
13027;BME280;6580;42.680;23.324;2023-02-18T05:49:14;96010.34;;;4.43;75.04
13027;BME280;6580;42.680;23.324;2023-02-18T05:51:44;96004.84;;;4.34;76.36
13027;BME280;6580;42.680;23.324;2023-02-18T05:54:11;96010.78;;;4.50;75.31
13027;BME280;6580;42.680;23.324;2023-02-18T05:56:39;96022.19;;;4.63;74.26
13027;BME280;6580;42.680;23.324;2023-02-18T05:59:06;96036.13;;;4.65;73.80
13027;BME280;6580;42.680;23.324;2023-02-18T06:01:34;96032.97;;;4.72;73.38
13027;BME280;6580;42.680;23.324;2023-02-18T06:04:03;96023.69;;;4.92;72.02
13027;BME280;6580;42.680;23.324;2023-02-18T06:06:33;96025.63;;;4.90;72.09
13027;BME280;6580;42.680;23.324;2023-02-18T06:09:01;96014.41;;;5.11;70.04
13027;BME280;6580;42.680;23.324;2023-02-18T06:11:29;96005.97;;;5.31;69.53
13027;BME280;6580;42.680;23.324;2023-02-18T06:13:56;96018.22;;;5.19;69.41
13027;BME280;6580;42.680;23.324;2023-02-18T06:16:24;96013.94;;;5.54;68.80
13027;BME280;6580;42.680;23.324;2023-02-18T06:18:54;96005.38;;;5.63;67.92
13027;BME280;6580;42.680;23.324;2023-02-18T06:21:21;96003.75;;;5.73;67.02
13027;BME280;6580;42.680;23.324;2023-02-18T06:23:49;96019.09;;;5.81;67.02
13027;BME280;6580;42.680;23.324;2023-02-18T06:26:17;95990.75;;;5.83;67.04
13027;BME280;6580;42.680;23.324;2023-02-18T06:28:44;95998.06;;;6.26;65.56
13027;BME280;6580;42.680;23.324;2023-02-18T06:31:11;96000.31;;;5.96;66.00
13027;BME280;6580;42.680;23.324;2023-02-18T06:33:38;95984.50;;;5.84;65.98
13027;BME280;6580;42.680;23.324;2023-02-18T06:36:07;95992.41;;;5.96;65.12
13027;BME280;6580;42.680;23.324;2023-02-18T06:38:36;95993.47;;;6.17;64.97
13027;BME280;6580;42.680;23.324;2023-02-18T06:41:04;95998.41;;;6.21;64.40
13027;BME280;6580;42.680;23.324;2023-02-18T06:43:33;95997.31;;;6.24;63.75
13027;BME280;6580;42.680;23.324;2023-02-18T06:46:02;95998.53;;;6.54;61.61
13027;BME280;6580;42.680;23.324;2023-02-18T06:48:29;96001.84;;;6.69;61.74
13027;BME280;6580;42.680;23.324;2023-02-18T06:50:58;95997.88;;;6.63;61.22
13027;BME280;6580;42.680;23.324;2023-02-18T06:53:26;95995.38;;;6.73;61.48
13027;BME280;6580;42.680;23.324;2023-02-18T06:55:53;95990.31;;;6.81;60.60
13027;BME280;6580;42.680;23.324;2023-02-18T06:58:21;95986.13;;;6.89;60.55
13027;BME280;6580;42.680;23.324;2023-02-18T07:00:50;96000.09;;;7.02;61.34
13027;BME280;6580;42.680;23.324;2023-02-18T07:03:17;95987.94;;;7.00;60.27
13027;BME280;6580;42.680;23.324;2023-02-18T07:05:44;95990.00;;;7.07;60.49
13027;BME280;6580;42.680;23.324;2023-02-18T07:08:11;95976.31;;;7.35;59.66
13027;BME280;6580;42.680;23.324;2023-02-18T07:10:37;95989.41;;;7.69;56.49
13027;BME280;6580;42.680;23.324;2023-02-18T07:13:04;95986.97;;;7.88;56.61
13027;BME280;6580;42.680;23.324;2023-02-18T07:15:31;95971.69;;;7.81;56.13
13027;BME280;6580;42.680;23.324;2023-02-18T07:17:59;95975.00;;;7.94;54.87
13027;BME280;6580;42.680;23.324;2023-02-18T07:20:26;95977.91;;;8.02;54.76
13027;BME280;6580;42.680;23.324;2023-02-18T07:22:53;95977.03;;;8.01;54.21
13027;BME280;6580;42.680;23.324;2023-02-18T07:25:21;95959.47;;;8.00;53.85
13027;BME280;6580;42.680;23.324;2023-02-18T07:27:48;95970.53;;;8.05;54.67
13027;BME280;6580;42.680;23.324;2023-02-18T07:30:16;95960.53;;;8.40;53.89
13027;BME280;6580;42.680;23.324;2023-02-18T07:32:43;95966.91;;;8.48;52.75
13027;BME280;6580;42.680;23.324;2023-02-18T07:35:15;95976.19;;;8.74;51.97
13027;BME280;6580;42.680;23.324;2023-02-18T07:37:43;95979.28;;;8.59;52.31
13027;BME280;6580;42.680;23.324;2023-02-18T07:40:13;95983.19;;;8.55;52.66
13027;BME280;6580;42.680;23.324;2023-02-18T07:42:41;95990.38;;;8.64;52.94
13027;BME280;6580;42.680;23.324;2023-02-18T07:45:08;95982.63;;;8.92;52.03
13027;BME280;6580;42.680;23.324;2023-02-18T07:47:35;95986.19;;;8.82;51.44
13027;BME280;6580;42.680;23.324;2023-02-18T07:50:03;95990.66;;;9.02;51.53
13027;BME280;6580;42.680;23.324;2023-02-18T07:52:31;95999.81;;;9.08;50.89
13027;BME280;6580;42.680;23.324;2023-02-18T07:54:58;95997.78;;;9.21;50.24
13027;BME280;6580;42.680;23.324;2023-02-18T07:57:25;95997.91;;;9.00;50.08
13027;BME280;6580;42.680;23.324;2023-02-18T07:59:52;95990.91;;;8.99;51.01
13027;BME280;6580;42.680;23.324;2023-02-18T08:02:20;95975.22;;;9.16;50.05
13027;BME280;6580;42.680;23.324;2023-02-18T08:04:48;95980.06;;;9.31;49.44
13027;BME280;6580;42.680;23.324;2023-02-18T08:07:16;95991.47;;;9.73;48.27
13027;BME280;6580;42.680;23.324;2023-02-18T08:09:44;95982.78;;;10.19;47.09
13027;BME280;6580;42.680;23.324;2023-02-18T08:12:11;95980.44;;;10.45;46.22
13027;BME280;6580;42.680;23.324;2023-02-18T08:14:38;95982.13;;;10.65;46.39
13027;BME280;6580;42.680;23.324;2023-02-18T08:17:06;95978.22;;;10.59;45.57
13027;BME280;6580;42.680;23.324;2023-02-18T08:19:32;95949.19;;;10.47;46.39
13027;BME280;6580;42.680;23.324;2023-02-18T08:22:00;95921.69;;;9.99;46.17
13027;BME280;6580;42.680;23.324;2023-02-18T08:24:28;95966.41;;;10.24;46.43
13027;BME280;6580;42.680;23.324;2023-02-18T08:26:56;95930.97;;;10.23;47.09
13027;BME280;6580;42.680;23.324;2023-02-18T08:29:23;95944.13;;;10.72;45.90
13027;BME280;6580;42.680;23.324;2023-02-18T08:31:50;95952.84;;;10.55;46.13
13027;BME280;6580;42.680;23.324;2023-02-18T08:34:19;95952.41;;;10.41;45.97
13027;BME280;6580;42.680;23.324;2023-02-18T08:36:49;95944.56;;;10.49;45.70
13027;BME280;6580;42.680;23.324;2023-02-18T08:39:16;95936.31;;;10.71;45.35
13027;BME280;6580;42.680;23.324;2023-02-18T08:41:43;95951.56;;;10.97;44.63
13027;BME280;6580;42.680;23.324;2023-02-18T08:44:11;95943.53;;;11.07;44.68
13027;BME280;6580;42.680;23.324;2023-02-18T08:46:38;95936.75;;;11.21;44.53
13027;BME280;6580;42.680;23.324;2023-02-18T08:49:05;95945.25;;;11.53;43.18
13027;BME280;6580;42.680;23.324;2023-02-18T08:51:32;95944.91;;;11.66;43.46
13027;BME280;6580;42.680;23.324;2023-02-18T08:53:59;95954.59;;;11.94;42.51
13027;BME280;6580;42.680;23.324;2023-02-18T08:56:26;95954.75;;;12.19;42.56
13027;BME280;6580;42.680;23.324;2023-02-18T08:58:53;95952.81;;;12.12;41.99
13027;BME280;6580;42.680;23.324;2023-02-18T09:01:22;95944.00;;;12.28;41.50
13027;BME280;6580;42.680;23.324;2023-02-18T09:03:49;95951.44;;;12.52;41.55
13027;BME280;6580;42.680;23.324;2023-02-18T09:06:18;95949.69;;;12.60;41.32
13027;BME280;6580;42.680;23.324;2023-02-18T09:08:45;95947.38;;;12.83;41.07
13027;BME280;6580;42.680;23.324;2023-02-18T09:11:11;95956.34;;;13.09;40.63
13027;BME280;6580;42.680;23.324;2023-02-18T09:13:39;95955.19;;;13.36;40.22
13027;BME280;6580;42.680;23.324;2023-02-18T09:16:07;95951.41;;;13.21;40.25
13027;BME280;6580;42.680;23.324;2023-02-18T09:18:36;95947.06;;;13.20;40.11
13027;BME280;6580;42.680;23.324;2023-02-18T09:21:06;95930.72;;;13.31;39.85
13027;BME280;6580;42.680;23.324;2023-02-18T09:23:34;95959.66;;;13.11;39.93
13027;BME280;6580;42.680;23.324;2023-02-18T09:26:07;95944.13;;;13.90;38.91
13027;BME280;6580;42.680;23.324;2023-02-18T09:28:34;95935.41;;;14.29;38.25
13027;BME280;6580;42.680;23.324;2023-02-18T09:31:06;95925.97;;;15.54;36.36
13027;BME280;6580;42.680;23.324;2023-02-18T09:33:36;95913.38;;;16.09;34.72
13027;BME280;6580;42.680;23.324;2023-02-18T09:36:03;95877.31;;;16.26;33.93
13027;BME280;6580;42.680;23.324;2023-02-18T09:38:30;95895.34;;;16.56;33.91
13027;BME280;6580;42.680;23.324;2023-02-18T09:41:02;95902.25;;;17.18;32.93
13027;BME280;6580;42.680;23.324;2023-02-18T09:43:33;95894.38;;;18.11;31.94
13027;BME280;6580;42.680;23.324;2023-02-18T09:46:02;95900.28;;;17.34;31.94
13027;BME280;6580;42.680;23.324;2023-02-18T09:48:32;95895.59;;;18.08;31.10
13027;BME280;6580;42.680;23.324;2023-02-18T09:51:03;95896.97;;;18.04;31.24
13027;BME280;6580;42.680;23.324;2023-02-18T09:53:32;95900.44;;;17.55;31.67
13027;BME280;6580;42.680;23.324;2023-02-18T09:55:59;95900.53;;;17.25;31.71
13027;BME280;6580;42.680;23.324;2023-02-18T09:58:29;95890.19;;;17.36;32.19
13027;BME280;6580;42.680;23.324;2023-02-18T10:01:03;95887.00;;;16.43;33.54
13027;BME280;6580;42.680;23.324;2023-02-18T10:03:33;95891.72;;;16.41;33.45
13027;BME280;6580;42.680;23.324;2023-02-18T10:06:04;95873.38;;;16.89;32.55
13027;BME280;6580;42.680;23.324;2023-02-18T10:08:35;95885.53;;;18.02;31.04
13027;BME280;6580;42.680;23.324;2023-02-18T10:11:09;95878.25;;;19.23;29.65
13027;BME280;6580;42.680;23.324;2023-02-18T10:13:40;95860.00;;;20.14;28.06
13027;BME280;6580;42.680;23.324;2023-02-18T10:16:08;95861.28;;;19.29;28.91
13027;BME280;6580;42.680;23.324;2023-02-18T10:18:40;95864.91;;;20.38;27.55
13027;BME280;6580;42.680;23.324;2023-02-18T10:21:13;95860.94;;;20.87;26.96
13027;BME280;6580;42.680;23.324;2023-02-18T10:23:45;95865.16;;;21.73;25.54
13027;BME280;6580;42.680;23.324;2023-02-18T10:26:16;95842.06;;;22.41;25.51
13027;BME280;6580;42.680;23.324;2023-02-18T10:28:44;95839.94;;;22.86;24.44
13027;BME280;6580;42.680;23.324;2023-02-18T10:31:19;95810.97;;;22.74;24.79
13027;BME280;6580;42.680;23.324;2023-02-18T10:33:54;95841.56;;;21.54;25.56
13027;BME280;6580;42.680;23.324;2023-02-18T10:36:35;95834.84;;;20.13;26.81
13027;BME280;6580;42.680;23.324;2023-02-18T10:39:27;95838.88;;;21.42;25.64
13027;BME280;6580;42.680;23.324;2023-02-18T10:42:08;95815.63;;;22.98;24.41
13027;BME280;6580;42.680;23.324;2023-02-18T10:44:45;95822.44;;;21.11;25.57
13027;BME280;6580;42.680;23.324;2023-02-18T10:47:24;95821.63;;;22.38;24.74
13027;BME280;6580;42.680;23.324;2023-02-18T10:49:58;95818.06;;;21.61;25.62
13027;BME280;6580;42.680;23.324;2023-02-18T10:52:29;95800.78;;;22.19;24.54
13027;BME280;6580;42.680;23.324;2023-02-18T10:55:06;95786.97;;;23.51;23.03
13027;BME280;6580;42.680;23.324;2023-02-18T10:57:44;95792.53;;;23.38;23.16
13027;BME280;6580;42.680;23.324;2023-02-18T11:00:16;95789.31;;;24.43;22.28
13027;BME280;6580;42.680;23.324;2023-02-18T11:02:44;95754.00;;;22.61;22.73
13027;BME280;6580;42.680;23.324;2023-02-18T11:05:18;95789.66;;;21.70;23.84
13027;BME280;6580;42.680;23.324;2023-02-18T11:07:52;95783.44;;;20.86;24.77
13027;BME280;6580;42.680;23.324;2023-02-18T11:10:23;95783.84;;;21.28;24.24
13027;BME280;6580;42.680;23.324;2023-02-18T11:12:55;95773.91;;;22.49;22.69
13027;BME280;6580;42.680;23.324;2023-02-18T11:15:25;95774.56;;;21.87;23.33
13027;BME280;6580;42.680;23.324;2023-02-18T11:17:53;95774.91;;;20.95;24.17
13027;BME280;6580;42.680;23.324;2023-02-18T11:20:29;95767.97;;;20.67;24.56
13027;BME280;6580;42.680;23.324;2023-02-18T11:23:15;95757.16;;;20.80;24.53
13027;BME280;6580;42.680;23.324;2023-02-18T11:25:57;95745.84;;;20.57;25.05
13027;BME280;6580;42.680;23.324;2023-02-18T11:28:32;95752.81;;;21.11;23.29
13027;BME280;6580;42.680;23.324;2023-02-18T11:31:02;95741.13;;;21.30;24.05
13027;BME280;6580;42.680;23.324;2023-02-18T11:33:33;95745.94;;;20.89;23.57
13027;BME280;6580;42.680;23.324;2023-02-18T11:36:12;95739.63;;;20.50;24.23
13027;BME280;6580;42.680;23.324;2023-02-18T11:38:51;95721.94;;;21.38;24.12
13027;BME280;6580;42.680;23.324;2023-02-18T11:41:29;95709.13;;;21.77;23.24
13027;BME280;6580;42.680;23.324;2023-02-18T11:43:58;95707.78;;;21.17;23.41
13027;BME280;6580;42.680;23.324;2023-02-18T11:46:26;95709.66;;;21.23;23.82
13027;BME280;6580;42.680;23.324;2023-02-18T11:48:55;95704.16;;;21.48;23.12
13027;BME280;6580;42.680;23.324;2023-02-18T11:51:25;95696.66;;;21.63;23.30
13027;BME280;6580;42.680;23.324;2023-02-18T11:54:01;95701.31;;;20.72;23.31
13027;BME280;6580;42.680;23.324;2023-02-18T11:56:31;95695.72;;;21.19;23.20
13027;BME280;6580;42.680;23.324;2023-02-18T11:59:02;95673.88;;;22.15;22.03
13027;BME280;6580;42.680;23.324;2023-02-18T12:01:43;95678.00;;;23.52;21.43
13027;BME280;6580;42.680;23.324;2023-02-18T12:04:17;95671.75;;;24.17;20.40
13027;BME280;6580;42.680;23.324;2023-02-18T12:06:51;95640.53;;;24.19;19.94
13027;BME280;6580;42.680;23.324;2023-02-18T12:09:29;95660.03;;;24.98;19.61
13027;BME280;6580;42.680;23.324;2023-02-18T12:12:01;95665.53;;;23.98;20.34
13027;BME280;6580;42.680;23.324;2023-02-18T12:14:30;95669.13;;;22.96;21.58
13027;BME280;6580;42.680;23.324;2023-02-18T12:20:12;95666.34;;;21.79;23.93
13027;BME280;6580;42.680;23.324;2023-02-18T12:22:43;95665.25;;;22.24;23.48
13027;BME280;6580;42.680;23.324;2023-02-18T12:25:24;95670.72;;;20.72;24.61
13027;BME280;6580;42.680;23.324;2023-02-18T12:28:21;95681.75;;;20.38;25.58
13027;BME280;6580;42.680;23.324;2023-02-18T12:34:06;95653.47;;;22.06;24.61
13027;BME280;6580;42.680;23.324;2023-02-18T12:36:48;95654.31;;;21.49;25.00
13027;BME280;6580;42.680;23.324;2023-02-18T12:39:30;95643.97;;;21.90;24.66
13027;BME280;6580;42.680;23.324;2023-02-18T12:42:14;95633.97;;;22.22;23.96
13027;BME280;6580;42.680;23.324;2023-02-18T12:44:47;95629.28;;;20.84;25.04
13027;BME280;6580;42.680;23.324;2023-02-18T12:47:38;95641.34;;;20.30;25.80
13027;BME280;6580;42.680;23.324;2023-02-18T12:53:23;95625.72;;;20.58;25.04
13027;BME280;6580;42.680;23.324;2023-02-18T12:56:01;95620.44;;;21.78;24.47
13027;BME280;6580;42.680;23.324;2023-02-18T12:58:43;95615.16;;;21.89;23.62
13027;BME280;6580;42.680;23.324;2023-02-18T13:01:25;95620.78;;;22.25;23.65
13027;BME280;6580;42.680;23.324;2023-02-18T13:04:04;95613.16;;;22.71;23.08
13027;BME280;6580;42.680;23.324;2023-02-18T13:06:56;95618.81;;;23.12;22.82
13027;BME280;6580;42.680;23.324;2023-02-18T13:09:38;95628.78;;;23.18;22.91
13027;BME280;6580;42.680;23.324;2023-02-18T13:12:11;95623.97;;;23.56;22.35
13027;BME280;6580;42.680;23.324;2023-02-18T13:14:47;95624.22;;;23.54;22.53
13027;BME280;6580;42.680;23.324;2023-02-18T13:17:18;95619.03;;;22.44;23.02
13027;BME280;6580;42.680;23.324;2023-02-18T13:19:49;95627.84;;;21.51;24.22
13027;BME280;6580;42.680;23.324;2023-02-18T13:22:20;95611.84;;;21.87;23.71
13027;BME280;6580;42.680;23.324;2023-02-18T13:24:49;95622.09;;;21.35;24.87
13027;BME280;6580;42.680;23.324;2023-02-18T13:27:26;95625.97;;;20.82;25.35
13027;BME280;6580;42.680;23.324;2023-02-18T13:30:08;95630.94;;;20.01;26.83
13027;BME280;6580;42.680;23.324;2023-02-18T13:32:51;95635.41;;;19.81;27.53
13027;BME280;6580;42.680;23.324;2023-02-18T13:35:24;95639.34;;;19.85;27.71
13027;BME280;6580;42.680;23.324;2023-02-18T13:38:11;95636.41;;;19.67;28.12
13027;BME280;6580;42.680;23.324;2023-02-18T13:40:42;95625.50;;;19.01;28.74
13027;BME280;6580;42.680;23.324;2023-02-18T13:43:19;95632.59;;;19.09;28.72
13027;BME280;6580;42.680;23.324;2023-02-18T13:46:07;95634.41;;;18.68;29.27
13027;BME280;6580;42.680;23.324;2023-02-18T13:48:39;95638.41;;;18.24;30.38
13027;BME280;6580;42.680;23.324;2023-02-18T13:51:08;95624.25;;;18.22;30.33
13027;BME280;6580;42.680;23.324;2023-02-18T13:53:36;95632.69;;;17.91;30.43
13027;BME280;6580;42.680;23.324;2023-02-18T13:56:06;95625.22;;;17.51;30.95